createdAt,value
2023-01-29T00:00:19.275Z,90.20
2023-01-29T00:02:48.355Z,90.40
2023-01-29T00:05:27.556Z,90.50
2023-01-29T00:07:58.179Z,90.60
2023-01-29T00:10:27.898Z,90.60
2023-01-29T00:12:56.824Z,90.60
2023-01-29T00:15:25.760Z,90.70
2023-01-29T00:17:54.405Z,90.60
2023-01-29T00:20:23.118Z,90.70
2023-01-29T00:22:51.857Z,90.50
2023-01-29T00:25:20.483Z,90.50
2023-01-29T00:27:49.186Z,90.50
2023-01-29T00:30:20.402Z,90.30
2023-01-29T00:32:49.324Z,90.30
2023-01-29T00:35:18.076Z,90.30
2023-01-29T00:37:46.713Z,90.10
2023-01-29T00:40:15.852Z,90.30
2023-01-29T00:43:06.154Z,89.80
2023-01-29T00:45:35.256Z,90.00
2023-01-29T00:48:04.891Z,89.70
2023-01-29T00:50:34.033Z,88.80
2023-01-29T00:53:02.763Z,88.40
2023-01-29T00:55:31.478Z,88.00
2023-01-29T00:58:00.180Z,87.90
2023-01-29T01:00:28.856Z,86.90
2023-01-29T01:03:12.928Z,86.80
2023-01-29T01:05:43.635Z,85.80
2023-01-29T01:08:32.325Z,85.00
2023-01-29T01:11:04.990Z,85.30
2023-01-29T01:13:44.429Z,84.60
2023-01-29T01:16:16.297Z,84.10
2023-01-29T01:18:45.096Z,82.60
2023-01-29T01:21:13.829Z,83.20
2023-01-29T01:23:44.723Z,84.20
2023-01-29T01:26:13.438Z,82.80
2023-01-29T01:28:42.078Z,82.60
2023-01-29T01:31:12.815Z,83.00
2023-01-29T01:33:42.489Z,82.00
2023-01-29T01:36:19.538Z,81.30
2023-01-29T01:38:48.401Z,80.90
2023-01-29T01:41:20.144Z,80.00
2023-01-29T01:43:56.769Z,81.10
2023-01-29T01:46:32.294Z,80.00
2023-01-29T01:49:05.522Z,79.90
2023-01-29T01:51:37.311Z,79.60
2023-01-29T01:54:13.443Z,80.20
2023-01-29T01:56:46.139Z,80.60
2023-01-29T01:59:29.092Z,78.00
2023-01-29T02:01:57.908Z,77.70
2023-01-29T02:04:47.965Z,77.80
2023-01-29T02:07:36.890Z,77.30
2023-01-29T02:10:17.036Z,78.40
2023-01-29T02:12:47.019Z,78.20
2023-01-29T02:15:15.732Z,77.60
2023-01-29T02:17:49.351Z,77.00
2023-01-29T02:20:25.535Z,77.00
2023-01-29T02:22:57.500Z,76.30
2023-01-29T02:25:31.566Z,76.30
2023-01-29T02:28:15.513Z,77.00
2023-01-29T02:30:49.491Z,75.90
2023-01-29T02:33:57.782Z,75.90
2023-01-29T02:36:42.830Z,76.10
2023-01-29T02:39:43.555Z,76.40
2023-01-29T02:42:20.595Z,75.00
2023-01-29T02:44:58.153Z,73.80
2023-01-29T02:47:37.379Z,72.80
2023-01-29T02:50:09.095Z,72.60
2023-01-29T02:52:45.661Z,74.00
2023-01-29T02:55:19.813Z,73.00
2023-01-29T02:57:50.768Z,71.60
2023-01-29T03:00:22.143Z,72.00
2023-01-29T03:03:02.452Z,71.30
2023-01-29T03:05:38.333Z,72.80
2023-01-29T03:08:11.742Z,71.00
2023-01-29T03:11:04.080Z,69.50
2023-01-29T03:13:44.908Z,69.80
2023-01-29T03:16:17.532Z,69.30
2023-01-29T03:18:52.054Z,67.20
2023-01-29T03:21:50.076Z,68.30
2023-01-29T03:25:01.547Z,69.20
2023-01-29T03:27:58.498Z,69.10
2023-01-29T03:30:49.207Z,69.80
2023-01-29T03:33:20.231Z,67.00
2023-01-29T03:36:00.204Z,66.30
2023-01-29T03:38:33.240Z,68.90
2023-01-29T03:41:06.388Z,67.70
2023-01-29T03:43:41.155Z,67.00
2023-01-29T03:46:33.168Z,69.90
2023-01-29T03:49:21.922Z,66.70
2023-01-29T03:52:09.661Z,67.40
2023-01-29T03:54:40.272Z,65.60
2023-01-29T03:57:30.119Z,64.80
2023-01-29T04:00:06.940Z,66.10
2023-01-29T04:02:50.162Z,64.20
2023-01-29T04:05:23.085Z,64.80
2023-01-29T04:07:58.395Z,63.50
2023-01-29T04:10:29.465Z,64.50
2023-01-29T04:13:03.271Z,64.50
2023-01-29T04:15:36.592Z,64.20
2023-01-29T04:18:05.585Z,64.20
2023-01-29T04:20:34.424Z,63.20
2023-01-29T04:23:03.816Z,63.60
2023-01-29T04:25:44.189Z,63.90
2023-01-29T04:28:24.415Z,63.00
2023-01-29T04:31:01.156Z,62.90
2023-01-29T04:33:59.569Z,65.80
2023-01-29T04:36:37.751Z,63.70
2023-01-29T04:39:28.190Z,63.00
2023-01-29T04:42:03.221Z,61.90
2023-01-29T04:44:33.741Z,63.10
2023-01-29T04:47:23.648Z,63.40
2023-01-29T04:50:29.662Z,62.80
2023-01-29T04:53:19.693Z,63.10
2023-01-29T04:55:52.281Z,63.00
2023-01-29T04:58:40.990Z,64.80
2023-01-29T05:01:15.326Z,62.90
2023-01-29T05:03:50.428Z,62.80
2023-01-29T05:06:21.833Z,61.40
2023-01-29T05:08:52.524Z,62.80
2023-01-29T05:11:22.389Z,64.60
2023-01-29T05:13:51.495Z,62.30
2023-01-29T05:16:25.140Z,62.10
2023-01-29T05:18:54.888Z,61.70
2023-01-29T05:21:24.509Z,61.60
2023-01-29T05:24:11.724Z,63.30
2023-01-29T05:27:00.165Z,60.90
2023-01-29T05:29:29.116Z,61.50
2023-01-29T05:31:58.005Z,61.50
2023-01-29T05:34:26.652Z,61.70
2023-01-29T05:36:55.390Z,60.20
2023-01-29T05:39:24.175Z,61.00
2023-01-29T05:41:52.884Z,61.50
2023-01-29T05:44:21.738Z,61.40
2023-01-29T05:46:52.079Z,62.30
2023-01-29T05:49:21.715Z,61.10
2023-01-29T05:51:50.385Z,62.20
2023-01-29T05:54:19.066Z,63.10
2023-01-29T05:56:47.860Z,62.10
2023-01-29T05:59:17.876Z,62.90
2023-01-29T06:01:46.658Z,63.40
2023-01-29T06:04:15.531Z,62.20
2023-01-29T06:06:44.223Z,61.00
2023-01-29T06:09:13.588Z,60.20
2023-01-29T06:11:42.382Z,62.00
2023-01-29T06:14:11.112Z,60.50
2023-01-29T06:16:39.782Z,60.20
2023-01-29T06:19:08.495Z,60.90
2023-01-29T06:21:37.243Z,60.50
2023-01-29T06:24:06.225Z,60.30
2023-01-29T06:26:35.264Z,59.80
2023-01-29T06:29:03.986Z,60.00
2023-01-29T06:31:38.917Z,61.30
2023-01-29T06:34:09.657Z,59.80
2023-01-29T06:36:38.450Z,59.40
2023-01-29T06:39:07.213Z,59.90
2023-01-29T06:41:36.438Z,60.00
2023-01-29T06:44:05.333Z,61.00
2023-01-29T06:46:34.065Z,59.80
2023-01-29T06:49:02.764Z,61.10
2023-01-29T06:51:31.638Z,60.50
2023-01-29T06:54:00.323Z,60.50
2023-01-29T06:56:29.078Z,61.00
2023-01-29T06:58:57.828Z,60.70
2023-01-29T07:01:35.644Z,61.10
2023-01-29T07:04:05.222Z,60.00
2023-01-29T07:06:34.421Z,61.20
2023-01-29T07:09:03.562Z,59.70
2023-01-29T07:11:32.976Z,58.90
2023-01-29T07:14:01.647Z,61.00
2023-01-29T07:16:30.439Z,59.40
2023-01-29T07:18:59.160Z,59.50
2023-01-29T07:21:27.825Z,59.60
2023-01-29T07:23:56.637Z,60.60
2023-01-29T07:26:25.348Z,60.90
2023-01-29T07:28:54.092Z,60.40
2023-01-29T07:31:24.141Z,59.40
2023-01-29T07:33:52.865Z,59.70
2023-01-29T07:36:21.477Z,61.70
2023-01-29T07:38:52.056Z,60.80
2023-01-29T07:41:20.911Z,60.10
2023-01-29T07:43:49.976Z,59.50
2023-01-29T07:46:18.639Z,59.60
2023-01-29T07:48:47.464Z,60.40
2023-01-29T07:51:18.025Z,60.00
2023-01-29T07:53:46.837Z,60.10
2023-01-29T07:56:15.588Z,60.50
2023-01-29T07:58:44.341Z,59.60
2023-01-29T08:01:13.107Z,59.40
2023-01-29T08:03:41.919Z,59.30
2023-01-29T08:06:10.680Z,59.10
2023-01-29T08:08:39.395Z,59.50
2023-01-29T08:11:08.332Z,59.50
2023-01-29T08:13:37.034Z,59.30
2023-01-29T08:16:06.460Z,60.40
2023-01-29T08:18:35.201Z,60.50
2023-01-29T08:21:05.005Z,60.10
2023-01-29T08:23:33.737Z,59.50
2023-01-29T08:26:04.617Z,60.30
2023-01-29T08:28:33.592Z,59.50
2023-01-29T08:31:02.814Z,59.60
2023-01-29T08:33:39.054Z,59.70
2023-01-29T08:36:09.432Z,59.50
2023-01-29T08:38:38.557Z,60.60
2023-01-29T08:41:07.955Z,60.00
2023-01-29T08:43:40.251Z,60.80
2023-01-29T08:46:09.658Z,61.10
2023-01-29T08:48:38.466Z,59.80
2023-01-29T08:51:07.368Z,59.50
2023-01-29T08:53:36.200Z,60.10
2023-01-29T08:56:04.988Z,60.40
2023-01-29T08:58:33.811Z,60.50
2023-01-29T09:01:17.929Z,60.80
2023-01-29T09:03:47.431Z,60.50
2023-01-29T09:06:16.460Z,60.30
2023-01-29T09:08:45.294Z,62.40
2023-01-29T09:11:14.206Z,61.00
2023-01-29T09:13:42.899Z,62.30
2023-01-29T09:16:12.031Z,60.40
2023-01-29T09:18:40.859Z,60.20
2023-01-29T09:21:09.718Z,60.30
2023-01-29T09:23:39.136Z,59.80
2023-01-29T09:26:10.399Z,61.00
2023-01-29T09:28:39.953Z,61.10
2023-01-29T09:31:08.678Z,62.00
2023-01-29T09:33:37.878Z,60.40
2023-01-29T09:36:07.109Z,61.00
2023-01-29T09:38:35.882Z,61.70
2023-01-29T09:41:11.354Z,62.30
2023-01-29T09:43:54.594Z,61.50
2023-01-29T09:46:27.086Z,63.20
2023-01-29T09:49:05.503Z,62.80
2023-01-29T09:51:48.140Z,62.30
2023-01-29T09:54:24.356Z,62.60
2023-01-29T09:56:57.641Z,62.10
2023-01-29T09:59:31.087Z,62.80
2023-01-29T10:02:08.358Z,62.80
2023-01-29T10:04:38.105Z,62.70
2023-01-29T10:07:17.414Z,62.20
2023-01-29T10:10:07.696Z,62.30
2023-01-29T10:13:00.633Z,62.00
2023-01-29T10:15:47.790Z,62.10
2023-01-29T10:18:58.054Z,62.40
2023-01-29T10:21:47.796Z,62.60
2023-01-29T10:24:18.630Z,62.70
2023-01-29T10:26:47.581Z,62.90
2023-01-29T10:29:22.957Z,62.50
2023-01-29T10:31:58.324Z,62.50
2023-01-29T10:34:36.554Z,62.70
2023-01-29T10:37:25.324Z,62.90
2023-01-29T10:42:54.411Z,63.50
2023-01-29T10:45:36.076Z,63.60
2023-01-29T10:48:25.145Z,64.10
2023-01-29T10:51:15.865Z,64.20
2023-01-29T10:54:05.487Z,64.40
2023-01-29T10:56:37.413Z,64.70
2023-01-29T11:02:20.749Z,65.50
2023-01-29T11:04:51.488Z,65.70
2023-01-29T11:07:26.141Z,66.10
2023-01-29T11:10:08.901Z,66.30
2023-01-29T11:12:42.928Z,66.50
2023-01-29T11:15:35.591Z,66.70
2023-01-29T11:18:09.456Z,66.80
2023-01-29T11:20:38.871Z,67.00
2023-01-29T11:23:07.792Z,67.40
2023-01-29T11:25:37.635Z,67.80
2023-01-29T11:28:07.385Z,68.00
2023-01-29T11:30:40.975Z,67.90
2023-01-29T11:33:13.990Z,68.30
2023-01-29T11:35:42.323Z,68.80
2023-01-29T11:38:23.351Z,68.80
2023-01-29T11:40:52.852Z,70.00
2023-01-29T11:43:33.288Z,71.00
2023-01-29T11:46:07.200Z,70.70
2023-01-29T11:48:46.514Z,71.40
2023-01-29T11:51:25.539Z,70.70
2023-01-29T11:53:59.763Z,70.90
2023-01-29T11:56:30.470Z,71.00
2023-01-29T11:59:02.821Z,71.40
2023-01-29T12:01:35.497Z,71.70
2023-01-29T12:04:22.391Z,72.10
2023-01-29T12:06:54.240Z,72.30
2023-01-29T12:09:29.230Z,72.50
2023-01-29T12:12:17.494Z,73.10
2023-01-29T12:14:46.493Z,73.10
2023-01-29T12:17:27.370Z,73.30
2023-01-29T12:20:02.220Z,74.10
2023-01-29T12:22:55.203Z,73.90
2023-01-29T12:25:28.580Z,74.00
2023-01-29T12:28:09.465Z,73.50
2023-01-29T12:30:39.417Z,73.80
2023-01-29T12:33:43.673Z,74.10
2023-01-29T12:36:22.940Z,74.50
2023-01-29T12:38:51.915Z,74.50
2023-01-29T12:41:46.132Z,74.40
2023-01-29T12:44:20.702Z,75.20
2023-01-29T12:46:55.187Z,74.80
2023-01-29T12:49:29.783Z,75.20
2023-01-29T12:52:02.723Z,75.20
2023-01-29T12:54:54.854Z,75.40
2023-01-29T12:57:38.485Z,75.50
2023-01-29T13:00:19.657Z,75.20
2023-01-29T13:03:27.659Z,75.10
2023-01-29T13:06:04.248Z,75.60
2023-01-29T13:08:40.428Z,75.50
2023-01-29T13:11:16.130Z,75.60
2023-01-29T13:13:58.030Z,75.60
2023-01-29T13:16:34.836Z,75.60
2023-01-29T13:19:08.756Z,75.90
2023-01-29T13:21:43.505Z,75.70
2023-01-29T13:24:17.494Z,76.00
2023-01-29T13:26:49.633Z,76.20
2023-01-29T13:29:26.282Z,76.90
2023-01-29T13:32:05.016Z,77.10
2023-01-29T13:34:36.487Z,76.90
2023-01-29T13:37:12.957Z,76.80
2023-01-29T13:39:49.916Z,76.80
2023-01-29T13:42:23.291Z,76.80
2023-01-29T13:44:57.101Z,76.90
2023-01-29T13:47:31.529Z,77.30
2023-01-29T13:50:07.421Z,77.20
2023-01-29T13:52:38.672Z,77.20
2023-01-29T13:55:22.691Z,77.10
2023-01-29T13:57:55.947Z,77.90
2023-01-29T14:00:31.911Z,77.60
2023-01-29T14:03:05.713Z,77.20
2023-01-29T14:05:40.594Z,77.50
2023-01-29T14:08:11.420Z,77.60
2023-01-29T14:10:40.392Z,77.60
2023-01-29T14:13:25.735Z,77.80
2023-01-29T14:15:59.121Z,78.10
2023-01-29T14:18:30.609Z,77.90
2023-01-29T14:21:03.911Z,78.20
2023-01-29T14:23:42.468Z,78.30
2023-01-29T14:26:31.593Z,78.50
2023-01-29T14:29:02.588Z,78.50
2023-01-29T14:31:52.166Z,77.80
2023-01-29T14:34:22.038Z,77.40
2023-01-29T14:36:56.483Z,77.40
2023-01-29T14:39:46.341Z,77.70
2023-01-29T14:42:37.006Z,77.70
2023-01-29T14:45:44.769Z,78.50
2023-01-29T14:48:17.161Z,77.80
2023-01-29T14:50:50.624Z,77.70
2023-01-29T14:53:24.468Z,77.60
2023-01-29T14:55:57.872Z,77.80
2023-01-29T14:58:34.404Z,77.80
2023-01-29T15:01:06.689Z,77.90
2023-01-29T15:03:42.945Z,78.10
2023-01-29T15:06:19.195Z,78.20
2023-01-29T15:08:56.661Z,78.20
2023-01-29T15:11:44.415Z,78.30
2023-01-29T15:14:25.751Z,78.40
2023-01-29T15:17:30.403Z,78.40
2023-01-29T15:19:59.365Z,78.60
2023-01-29T15:22:30.197Z,78.50
2023-01-29T15:25:21.615Z,78.70
2023-01-29T15:27:51.425Z,78.60
2023-01-29T15:30:27.778Z,78.40
2023-01-29T15:32:57.926Z,78.80
2023-01-29T15:35:34.609Z,78.70
2023-01-29T15:38:06.228Z,78.70
2023-01-29T15:40:35.891Z,79.00
2023-01-29T15:43:19.140Z,78.90
2023-01-29T15:45:48.703Z,78.90
2023-01-29T15:48:23.744Z,79.10
2023-01-29T15:50:56.428Z,78.90
2023-01-29T15:53:32.351Z,78.80
2023-01-29T15:56:02.336Z,78.90
2023-01-29T15:58:33.633Z,78.90
2023-01-29T16:01:03.373Z,78.90
2023-01-29T16:03:34.987Z,78.80
2023-01-29T16:06:04.052Z,78.90
2023-01-29T16:08:34.407Z,78.90
2023-01-29T16:11:05.730Z,78.80
2023-01-29T16:13:40.788Z,78.90
2023-01-29T16:16:29.399Z,78.80
2023-01-29T16:19:00.870Z,79.00
2023-01-29T16:21:31.069Z,79.00
2023-01-29T16:24:08.698Z,79.00
2023-01-29T16:26:41.190Z,79.20
2023-01-29T16:29:20.759Z,79.40
2023-01-29T16:31:52.454Z,79.20
2023-01-29T16:34:43.165Z,79.00
2023-01-29T16:37:39.678Z,79.30
2023-01-29T16:40:34.169Z,79.40
2023-01-29T16:43:26.218Z,79.50
2023-01-29T16:46:07.410Z,80.00
2023-01-29T16:48:41.077Z,80.00
2023-01-29T16:51:24.987Z,79.90
2023-01-29T16:54:01.797Z,80.00
2023-01-29T16:56:33.769Z,80.00
2023-01-29T17:02:40.077Z,80.10
2023-01-29T17:05:16.471Z,80.60
2023-01-29T17:07:47.819Z,80.70
2023-01-29T17:10:24.264Z,80.60
2023-01-29T17:13:16.605Z,81.20
2023-01-29T17:15:48.096Z,81.70
2023-01-29T17:18:21.388Z,83.30
2023-01-29T17:20:50.703Z,82.20
2023-01-29T17:23:19.929Z,82.40
2023-01-29T17:25:50.187Z,82.10
2023-01-29T17:28:20.061Z,82.30
2023-01-29T17:31:04.895Z,82.80
2023-01-29T17:33:35.277Z,83.40
2023-01-29T17:36:04.039Z,83.30
2023-01-29T17:38:32.871Z,83.20
2023-01-29T17:41:03.671Z,82.90
2023-01-29T17:43:32.578Z,83.10
2023-01-29T17:46:01.506Z,83.80
2023-01-29T17:48:31.753Z,83.60
2023-01-29T17:51:05.639Z,83.40
2023-01-29T17:53:45.329Z,83.50
2023-01-29T17:56:18.784Z,83.40
2023-01-29T17:58:47.309Z,83.60
2023-01-29T18:01:16.570Z,83.10
2023-01-29T18:03:45.423Z,83.30
2023-01-29T18:06:23.606Z,83.60
2023-01-29T18:08:52.497Z,84.20
2023-01-29T18:11:21.450Z,84.00
2023-01-29T18:13:50.227Z,84.10
2023-01-29T18:16:19.725Z,84.30
2023-01-29T18:18:48.707Z,83.80
2023-01-29T18:21:17.842Z,83.70
2023-01-29T18:23:46.759Z,83.60
2023-01-29T18:26:18.560Z,83.40
2023-01-29T18:28:47.259Z,84.20
2023-01-29T18:31:16.079Z,84.10
2023-01-29T18:33:46.352Z,84.40
2023-01-29T18:36:15.385Z,85.40
2023-01-29T18:38:44.397Z,85.20
2023-01-29T18:41:13.507Z,85.50
2023-01-29T18:43:44.142Z,84.90
2023-01-29T18:46:13.229Z,85.50
2023-01-29T18:48:42.909Z,85.30
2023-01-29T18:51:11.972Z,84.70
2023-01-29T18:53:40.954Z,84.60
2023-01-29T18:56:11.897Z,84.60
2023-01-29T18:58:41.242Z,84.30
2023-01-29T19:01:13.002Z,84.50
2023-01-29T19:03:43.090Z,84.70
2023-01-29T19:06:13.272Z,84.50
2023-01-29T19:08:43.948Z,85.20
2023-01-29T19:11:13.617Z,85.00
2023-01-29T19:13:43.715Z,84.70
2023-01-29T19:16:14.399Z,84.20
2023-01-29T19:18:43.348Z,84.30
2023-01-29T19:21:14.751Z,84.30
2023-01-29T19:23:44.816Z,84.10
2023-01-29T19:26:23.416Z,84.70
2023-01-29T19:28:52.161Z,84.90
2023-01-29T19:31:21.033Z,85.10
2023-01-29T19:33:49.969Z,85.00
2023-01-29T19:36:18.620Z,85.70
2023-01-29T19:38:47.241Z,85.10
2023-01-29T19:41:15.902Z,84.90
2023-01-29T19:43:44.677Z,84.60
2023-01-29T19:46:13.868Z,84.40
2023-01-29T19:48:42.712Z,84.40
2023-01-29T19:51:13.156Z,84.20
2023-01-29T19:53:45.223Z,84.30
2023-01-29T19:56:16.410Z,83.90
2023-01-29T19:58:46.247Z,84.60
2023-01-29T20:01:21.131Z,84.10
2023-01-29T20:03:51.111Z,84.60
2023-01-29T20:06:23.882Z,84.10
2023-01-29T20:08:52.910Z,83.60
2023-01-29T20:11:23.471Z,83.90
2023-01-29T20:13:53.542Z,83.80
2023-01-29T20:16:23.218Z,83.60
2023-01-29T20:18:52.233Z,83.50
2023-01-29T20:21:23.135Z,83.40
2023-01-29T20:23:52.674Z,83.10
2023-01-29T20:26:22.892Z,83.60
2023-01-29T20:28:51.893Z,83.30
2023-01-29T20:31:50.277Z,83.40
2023-01-29T20:34:22.743Z,83.00
2023-01-29T20:36:51.555Z,83.50
2023-01-29T20:39:20.385Z,83.70
2023-01-29T20:41:49.214Z,83.50
2023-01-29T20:44:17.992Z,83.60
2023-01-29T20:46:47.193Z,83.20
2023-01-29T20:49:18.152Z,82.90
2023-01-29T20:55:08.771Z,81.60
2023-01-29T20:57:37.501Z,81.80
2023-01-29T21:00:08.212Z,81.60
2023-01-29T21:02:37.105Z,81.00
2023-01-29T21:05:07.481Z,80.80
2023-01-29T21:07:37.088Z,81.30
2023-01-29T21:10:06.002Z,81.20
2023-01-29T21:12:34.850Z,81.50
2023-01-29T21:15:03.589Z,81.40
2023-01-29T21:17:32.289Z,80.70
2023-01-29T21:20:01.041Z,80.80
2023-01-29T21:22:29.754Z,80.20
2023-01-29T21:24:58.493Z,80.00
2023-01-29T21:27:27.548Z,80.90
2023-01-29T21:29:56.246Z,80.20
2023-01-29T21:32:25.022Z,80.30
2023-01-29T21:34:53.737Z,80.10
2023-01-29T21:37:22.427Z,79.70
2023-01-29T21:39:51.162Z,79.60
2023-01-29T21:45:24.726Z,79.00
2023-01-29T21:47:53.513Z,79.30
2023-01-29T21:50:22.269Z,79.90
2023-01-29T21:52:50.976Z,79.10
2023-01-29T21:55:19.710Z,79.60
2023-01-29T21:57:49.718Z,79.70
2023-01-29T22:03:09.959Z,80.30
2023-01-29T22:05:40.581Z,79.90
2023-01-29T22:08:09.326Z,79.80
2023-01-29T22:10:38.609Z,80.00
2023-01-29T22:13:09.522Z,80.40
2023-01-29T22:15:38.135Z,80.90
2023-01-29T22:18:06.914Z,81.00
2023-01-29T22:20:37.256Z,83.40
2023-01-29T22:23:08.071Z,82.00
2023-01-29T22:25:36.766Z,81.50
2023-01-29T22:28:05.852Z,81.80
2023-01-29T22:30:34.721Z,82.00
2023-01-29T22:33:03.403Z,83.00
2023-01-29T22:35:32.316Z,82.60
2023-01-29T22:38:01.106Z,82.50
2023-01-29T22:40:29.894Z,82.60
2023-01-29T22:42:59.293Z,82.50
2023-01-29T22:45:29.073Z,82.20
2023-01-29T22:47:58.578Z,82.60
2023-01-29T22:50:27.163Z,82.70
2023-01-29T22:52:55.960Z,82.80
2023-01-29T22:55:24.747Z,83.20
2023-01-29T22:57:54.424Z,83.20
2023-01-29T23:00:23.465Z,83.10
2023-01-29T23:02:53.779Z,83.20
2023-01-29T23:05:22.588Z,83.40
2023-01-29T23:07:51.436Z,83.80
2023-01-29T23:10:20.311Z,83.60
2023-01-29T23:12:49.003Z,83.80
2023-01-29T23:15:17.847Z,83.30
2023-01-29T23:17:46.509Z,83.30
2023-01-29T23:20:15.489Z,83.30
2023-01-29T23:22:44.276Z,83.20
2023-01-29T23:25:13.063Z,83.80
2023-01-29T23:27:41.816Z,83.20
2023-01-29T23:30:11.312Z,83.70
2023-01-29T23:32:40.096Z,83.60
2023-01-29T23:35:09.357Z,83.90
2023-01-29T23:37:38.044Z,83.90
2023-01-29T23:40:07.258Z,83.90
2023-01-29T23:42:35.914Z,83.90
2023-01-29T23:45:04.743Z,83.80
2023-01-29T23:47:33.569Z,83.70
2023-01-29T23:50:05.603Z,83.80
2023-01-29T23:52:34.431Z,85.70
2023-01-29T23:55:03.091Z,84.40
2023-01-29T23:57:31.786Z,84.50
